24XS weather

Furst Ranch Heliport
Argyle, Texas, United States

Public forecast

Using degrees Fahrenheit for public forecast. Weather courtesy of forecast.io.

Closest aviation weather report (METAR) to Furst Ranch Heliport

Closest report is Denton Municipal Airport, 7.5 nm (14.0 km) N. Retrieved 2019/11/18 18:53 UTC (19 minutes ago):

KDTO 181853Z 25009KT 9SM CLR 21/01 A2993 RMK AO2 SLP132 T02060011

Closest aviation forecast (TAF) to Furst Ranch Heliport

Closest forecast is Fort Worth Alliance Airport, 8.7 nm (16.1 km) SW. Retrieved 2019/11/18 18:22 UTC (50 minutes ago):

TAF KAFW 181720Z 1818/1918 24006KT P6SM FEW250 FM191600 15007KT P6SM FEW250